CFG3654 EDDL-LIMJ
Flight info
| Callsign | CFG3654 |
|---|---|
| Flight time | 1h 17m |
| Altitude | 33000 |
| Route | DODEN7Z/05R DODEN Y852 NATOR DCT TRA DCT RIPUS DCT GERSA DCT SOSON DCT ODINA DCT SRN DCT VOG/N0371F190 M858 RUCFO |
| Aircraft | A21N/M-SBDE3FGHIJ1J4J7LORVWXYZ/SB2D1G1 |
Departure
| Time | 2026-05-06 14:04 |
|---|---|
| Airport | Düsseldorf Airport (EDDL) |
Arrival
| Time | 2026-05-06 15:21 |
|---|---|
| Airport | Genoa Cristoforo Colombo Airport (LIMJ) |
| Time | Latitude | Longitude | Altitude | Speed | Heading |
|---|---|---|---|---|---|
| 2026-05-06 13:21 | 51.28608 | 6.77333 | 133 ft | 0 kts | 322° |
| 2026-05-06 13:49 | 51.28591 | 6.77353 | 133 ft | 4 kts | 322° |
| 2026-05-06 13:49 | 51.28574 | 6.77376 | 134 ft | 4 kts | 304° |
| 2026-05-06 13:50 | 51.28569 | 6.77410 | 134 ft | 4 kts | 247° |
| 2026-05-06 13:50 | 51.28580 | 6.77438 | 134 ft | 1 kts | 232° |
| 2026-05-06 13:50 | 51.28582 | 6.77443 | 134 ft | 0 kts | 232° |
| 2026-05-06 13:57 | 51.28580 | 6.77439 | 135 ft | 2 kts | 232° |
| 2026-05-06 13:57 | 51.28566 | 6.77408 | 134 ft | 5 kts | 232° |
| 2026-05-06 13:57 | 51.28542 | 6.77356 | 135 ft | 7 kts | 238° |
| 2026-05-06 13:57 | 51.28513 | 6.77286 | 135 ft | 8 kts | 232° |
| 2026-05-06 13:58 | 51.28474 | 6.77205 | 135 ft | 10 kts | 232° |
| 2026-05-06 13:58 | 51.28432 | 6.77119 | 134 ft | 8 kts | 233° |
| 2026-05-06 13:58 | 51.28393 | 6.77035 | 134 ft | 10 kts | 233° |
| 2026-05-06 13:58 | 51.28358 | 6.76930 | 134 ft | 12 kts | 271° |
| 2026-05-06 13:59 | 51.28361 | 6.76903 | 134 ft | 0 kts | 289° |
| 2026-05-06 13:59 | 51.28367 | 6.76888 | 133 ft | 3 kts | 305° |
| 2026-05-06 13:59 | 51.28392 | 6.76847 | 132 ft | 7 kts | 321° |
| 2026-05-06 14:00 | 51.28440 | 6.76787 | 132 ft | 10 kts | 318° |
| 2026-05-06 14:00 | 51.28443 | 6.76680 | 131 ft | 11 kts | 235° |
| 2026-05-06 14:00 | 51.28391 | 6.76571 | 130 ft | 13 kts | 232° |
| 2026-05-06 14:00 | 51.28332 | 6.76445 | 132 ft | 15 kts | 233° |
| 2026-05-06 14:01 | 51.28264 | 6.76304 | 133 ft | 17 kts | 232° |
| 2026-05-06 14:01 | 51.28196 | 6.76161 | 134 ft | 16 kts | 233° |
| 2026-05-06 14:01 | 51.28126 | 6.76014 | 135 ft | 17 kts | 232° |
| 2026-05-06 14:01 | 51.28050 | 6.75854 | 135 ft | 19 kts | 233° |
| 2026-05-06 14:02 | 51.27970 | 6.75685 | 135 ft | 20 kts | 233° |
| 2026-05-06 14:02 | 51.27904 | 6.75547 | 133 ft | 14 kts | 232° |
| 2026-05-06 14:02 | 51.27853 | 6.75440 | 132 ft | 11 kts | 233° |
| 2026-05-06 14:02 | 51.27865 | 6.75333 | 128 ft | 12 kts | 326° |
| 2026-05-06 14:03 | 51.27945 | 6.75270 | 124 ft | 13 kts | 345° |
| 2026-05-06 14:03 | 51.28025 | 6.75337 | 125 ft | 15 kts | 53° |
| 2026-05-06 14:03 | 51.28170 | 6.75643 | 134 ft | 69 kts | 53° |
| 2026-05-06 14:03 | 51.28619 | 6.76582 | 137 ft | 142 kts | 52° |
| 2026-05-06 14:04 | 51.29265 | 6.77932 | 510 ft | 158 kts | 52° |
| 2026-05-06 14:04 | 51.29922 | 6.79370 | 1145 ft | 161 kts | 53° |
| 2026-05-06 14:04 | 51.30624 | 6.80872 | 1594 ft | 177 kts | 53° |
| 2026-05-06 14:04 | 51.31412 | 6.82545 | 2032 ft | 198 kts | 52° |
| 2026-05-06 14:05 | 51.32281 | 6.84371 | 2612 ft | 214 kts | 52° |
| 2026-05-06 14:05 | 51.33209 | 6.86343 | 3156 ft | 232 kts | 53° |
| 2026-05-06 14:05 | 51.34199 | 6.88539 | 3639 ft | 254 kts | 55° |
| 2026-05-06 14:05 | 51.35060 | 6.91072 | 4353 ft | 264 kts | 73° |
| 2026-05-06 14:06 | 51.35235 | 6.94009 | 5208 ft | 269 kts | 96° |
| 2026-05-06 14:06 | 51.34941 | 6.96987 | 6088 ft | 272 kts | 101° |
| 2026-05-06 14:06 | 51.34603 | 6.99988 | 6950 ft | 276 kts | 100° |
| 2026-05-06 14:06 | 51.34270 | 7.03030 | 7785 ft | 279 kts | 100° |
| 2026-05-06 14:07 | 51.33945 | 7.06086 | 8589 ft | 283 kts | 99° |
| 2026-05-06 14:07 | 51.33619 | 7.09217 | 9400 ft | 287 kts | 99° |
| 2026-05-06 14:07 | 51.33293 | 7.12385 | 10168 ft | 292 kts | 99° |
| 2026-05-06 14:07 | 51.32876 | 7.15669 | 10539 ft | 312 kts | 107° |
| 2026-05-06 14:08 | 51.31951 | 7.18913 | 10825 ft | 331 kts | 126° |
| 2026-05-06 14:08 | 51.30362 | 7.21711 | 11119 ft | 350 kts | 136° |
| 2026-05-06 14:08 | 51.28571 | 7.24449 | 11607 ft | 361 kts | 137° |
| 2026-05-06 14:08 | 51.26749 | 7.27254 | 12295 ft | 366 kts | 136° |
| 2026-05-06 14:09 | 51.24917 | 7.30114 | 13017 ft | 369 kts | 136° |
| 2026-05-06 14:09 | 51.23074 | 7.32993 | 13722 ft | 373 kts | 136° |
| 2026-05-06 14:09 | 51.21209 | 7.35903 | 14409 ft | 377 kts | 136° |
| 2026-05-06 14:09 | 51.19354 | 7.38812 | 15072 ft | 380 kts | 135° |
| 2026-05-06 14:10 | 51.17460 | 7.41789 | 15721 ft | 384 kts | 135° |
| 2026-05-06 14:10 | 51.15545 | 7.44801 | 16367 ft | 388 kts | 135° |
| 2026-05-06 14:10 | 51.13599 | 7.47818 | 16980 ft | 391 kts | 136° |
| 2026-05-06 14:10 | 51.11621 | 7.50837 | 17589 ft | 395 kts | 136° |
| 2026-05-06 14:11 | 51.09625 | 7.53883 | 18182 ft | 398 kts | 136° |
| 2026-05-06 14:11 | 51.07614 | 7.56952 | 18754 ft | 402 kts | 136° |
| 2026-05-06 14:11 | 51.05588 | 7.60039 | 19314 ft | 405 kts | 136° |
| 2026-05-06 14:11 | 51.03543 | 7.63159 | 19855 ft | 409 kts | 136° |
| 2026-05-06 14:12 | 51.01467 | 7.66271 | 20398 ft | 412 kts | 140° |
| 2026-05-06 14:12 | 50.99073 | 7.68657 | 20896 ft | 414 kts | 157° |
| 2026-05-06 14:12 | 50.96345 | 7.70230 | 21409 ft | 417 kts | 162° |
| 2026-05-06 14:12 | 50.93573 | 7.71687 | 21901 ft | 421 kts | 162° |
| 2026-05-06 14:13 | 50.90791 | 7.73171 | 22373 ft | 424 kts | 161° |
| 2026-05-06 14:13 | 50.87985 | 7.74703 | 22853 ft | 427 kts | 161° |
| 2026-05-06 14:13 | 50.85167 | 7.76256 | 23321 ft | 430 kts | 161° |
| 2026-05-06 14:13 | 50.82332 | 7.77825 | 23771 ft | 433 kts | 161° |
| 2026-05-06 14:14 | 50.79478 | 7.79408 | 24210 ft | 435 kts | 161° |
| 2026-05-06 14:14 | 50.76646 | 7.80974 | 24632 ft | 438 kts | 161° |
| 2026-05-06 14:14 | 50.73758 | 7.82578 | 25042 ft | 441 kts | 161° |
| 2026-05-06 14:14 | 50.70843 | 7.84188 | 25433 ft | 444 kts | 161° |
| 2026-05-06 14:15 | 50.67911 | 7.85806 | 25836 ft | 447 kts | 161° |
| 2026-05-06 14:15 | 50.64959 | 7.87434 | 26232 ft | 450 kts | 161° |
| 2026-05-06 14:15 | 50.61997 | 7.89064 | 26615 ft | 452 kts | 161° |
| 2026-05-06 14:15 | 50.59011 | 7.90702 | 26979 ft | 455 kts | 161° |
| 2026-05-06 14:16 | 50.56011 | 7.92346 | 27336 ft | 458 kts | 161° |
| 2026-05-06 14:16 | 50.52993 | 7.94000 | 27692 ft | 459 kts | 161° |
| 2026-05-06 14:16 | 50.50012 | 7.95628 | 28107 ft | 459 kts | 161° |
| 2026-05-06 14:16 | 50.46966 | 7.97288 | 28546 ft | 457 kts | 161° |
| 2026-05-06 14:17 | 50.43999 | 7.98904 | 28970 ft | 456 kts | 161° |
| 2026-05-06 14:17 | 50.41004 | 8.00534 | 29371 ft | 455 kts | 161° |
| 2026-05-06 14:17 | 50.38012 | 8.02158 | 29766 ft | 454 kts | 161° |
| 2026-05-06 14:17 | 50.35029 | 8.03786 | 30150 ft | 453 kts | 161° |
| 2026-05-06 14:18 | 50.32042 | 8.05413 | 30483 ft | 453 kts | 161° |
| 2026-05-06 14:18 | 50.29060 | 8.07021 | 30821 ft | 452 kts | 161° |
| 2026-05-06 14:18 | 50.27086 | 8.08089 | 31026 ft | 452 kts | 161° |
| 2026-05-06 14:18 | 50.24106 | 8.09701 | 31340 ft | 452 kts | 161° |
| 2026-05-06 14:19 | 50.20168 | 8.11830 | 31748 ft | 452 kts | 161° |
| 2026-05-06 14:19 | 50.17194 | 8.13439 | 32047 ft | 452 kts | 161° |
| 2026-05-06 14:19 | 50.15218 | 8.14494 | 32239 ft | 451 kts | 162° |
| 2026-05-06 14:19 | 50.12155 | 8.15612 | 32528 ft | 450 kts | 172° |
| 2026-05-06 14:20 | 50.09038 | 8.16120 | 32810 ft | 449 kts | 175° |
| 2026-05-06 14:20 | 50.05918 | 8.16524 | 33004 ft | 451 kts | 175° |
| 2026-05-06 14:20 | 49.99668 | 8.17345 | 33026 ft | 450 kts | 175° |
| 2026-05-06 14:21 | 49.93417 | 8.18195 | 33013 ft | 451 kts | 175° |
| 2026-05-06 14:21 | 49.87162 | 8.19054 | 33008 ft | 450 kts | 175° |
| 2026-05-06 14:22 | 49.80932 | 8.19907 | 33017 ft | 450 kts | 175° |
| 2026-05-06 14:22 | 49.74688 | 8.20762 | 33011 ft | 451 kts | 175° |
| 2026-05-06 14:23 | 49.68438 | 8.21618 | 33011 ft | 450 kts | 175° |
| 2026-05-06 14:23 | 49.62228 | 8.22462 | 33009 ft | 450 kts | 175° |
| 2026-05-06 14:24 | 49.55989 | 8.23326 | 33010 ft | 450 kts | 175° |
| 2026-05-06 14:24 | 49.49743 | 8.24183 | 33017 ft | 450 kts | 175° |
| 2026-05-06 14:25 | 49.43498 | 8.25032 | 33012 ft | 450 kts | 175° |
| 2026-05-06 14:25 | 49.37256 | 8.25877 | 33010 ft | 450 kts | 175° |
| 2026-05-06 14:26 | 49.31005 | 8.26725 | 33007 ft | 450 kts | 175° |
| 2026-05-06 14:26 | 49.24756 | 8.27574 | 33011 ft | 450 kts | 175° |
| 2026-05-06 14:27 | 49.18504 | 8.28416 | 33008 ft | 450 kts | 175° |
| 2026-05-06 14:27 | 49.12302 | 8.29250 | 33004 ft | 450 kts | 175° |
| 2026-05-06 14:28 | 49.06059 | 8.30087 | 33000 ft | 450 kts | 175° |
| 2026-05-06 14:28 | 48.99810 | 8.30916 | 33001 ft | 450 kts | 176° |
| 2026-05-06 14:29 | 48.93551 | 8.31162 | 33003 ft | 450 kts | 180° |
| 2026-05-06 14:29 | 48.87284 | 8.31199 | 33001 ft | 450 kts | 180° |
| 2026-05-06 14:30 | 48.81010 | 8.31268 | 33000 ft | 450 kts | 180° |
| 2026-05-06 14:30 | 48.74785 | 8.31352 | 33000 ft | 451 kts | 180° |
| 2026-05-06 14:31 | 48.68483 | 8.31437 | 33002 ft | 453 kts | 180° |
| 2026-05-06 14:31 | 48.62160 | 8.31520 | 33001 ft | 453 kts | 180° |
| 2026-05-06 14:32 | 48.55845 | 8.31598 | 33001 ft | 454 kts | 180° |
| 2026-05-06 14:32 | 48.49565 | 8.31678 | 33003 ft | 453 kts | 180° |
| 2026-05-06 14:33 | 48.43244 | 8.31752 | 33002 ft | 454 kts | 180° |
| 2026-05-06 14:33 | 48.36938 | 8.31835 | 33003 ft | 453 kts | 180° |
| 2026-05-06 14:34 | 48.30621 | 8.31916 | 33000 ft | 453 kts | 180° |
| 2026-05-06 14:34 | 48.24314 | 8.31985 | 33001 ft | 453 kts | 180° |
| 2026-05-06 14:35 | 48.17997 | 8.32086 | 33001 ft | 454 kts | 178° |
| 2026-05-06 14:35 | 48.11775 | 8.33349 | 33004 ft | 455 kts | 171° |
| 2026-05-06 14:36 | 48.05516 | 8.34886 | 33002 ft | 456 kts | 171° |
| 2026-05-06 14:36 | 47.99251 | 8.36387 | 33002 ft | 456 kts | 171° |
| 2026-05-06 14:37 | 47.92995 | 8.37900 | 33001 ft | 455 kts | 171° |
| 2026-05-06 14:37 | 47.86742 | 8.39421 | 33001 ft | 455 kts | 171° |
| 2026-05-06 14:38 | 47.80497 | 8.40914 | 33000 ft | 455 kts | 171° |
| 2026-05-06 14:38 | 47.74245 | 8.42419 | 33002 ft | 454 kts | 171° |
| 2026-05-06 14:39 | 47.68006 | 8.43820 | 33002 ft | 453 kts | 174° |
| 2026-05-06 14:39 | 47.61779 | 8.44749 | 33002 ft | 452 kts | 174° |
| 2026-05-06 14:40 | 47.55504 | 8.45665 | 33000 ft | 452 kts | 174° |
| 2026-05-06 14:40 | 47.49233 | 8.46586 | 33002 ft | 453 kts | 174° |
| 2026-05-06 14:41 | 47.42959 | 8.47510 | 33001 ft | 453 kts | 174° |
| 2026-05-06 14:41 | 47.39828 | 8.47967 | 33146 ft | 449 kts | 174° |
| 2026-05-06 14:41 | 47.36725 | 8.48419 | 33468 ft | 448 kts | 174° |
| 2026-05-06 14:42 | 47.33626 | 8.48872 | 33707 ft | 448 kts | 174° |
| 2026-05-06 14:42 | 47.30522 | 8.49326 | 33967 ft | 448 kts | 174° |
| 2026-05-06 14:42 | 47.27414 | 8.49781 | 34176 ft | 449 kts | 174° |
| 2026-05-06 14:42 | 47.24301 | 8.50233 | 34404 ft | 449 kts | 174° |
| 2026-05-06 14:43 | 47.21188 | 8.50685 | 34630 ft | 449 kts | 174° |
| 2026-05-06 14:43 | 47.18073 | 8.51138 | 34868 ft | 449 kts | 174° |
| 2026-05-06 14:43 | 47.14964 | 8.51592 | 35026 ft | 450 kts | 174° |
| 2026-05-06 14:43 | 47.11874 | 8.52039 | 35036 ft | 451 kts | 174° |
| 2026-05-06 14:44 | 47.05630 | 8.52945 | 35010 ft | 449 kts | 174° |
| 2026-05-06 14:45 | 46.96243 | 8.54304 | 34992 ft | 451 kts | 174° |
| 2026-05-06 14:45 | 46.89961 | 8.55209 | 35008 ft | 455 kts | 174° |
| 2026-05-06 14:46 | 46.83685 | 8.56116 | 34997 ft | 458 kts | 174° |
| 2026-05-06 14:46 | 46.77330 | 8.57032 | 34999 ft | 461 kts | 174° |
| 2026-05-06 14:47 | 46.70946 | 8.57946 | 35009 ft | 458 kts | 174° |
| 2026-05-06 14:47 | 46.64628 | 8.58849 | 35002 ft | 455 kts | 174° |
| 2026-05-06 14:48 | 46.58278 | 8.59752 | 35005 ft | 461 kts | 174° |
| 2026-05-06 14:48 | 46.51894 | 8.60660 | 35005 ft | 458 kts | 174° |
| 2026-05-06 14:49 | 46.45578 | 8.61552 | 34997 ft | 460 kts | 174° |
| 2026-05-06 14:49 | 46.39230 | 8.62704 | 35003 ft | 456 kts | 170° |
| 2026-05-06 14:50 | 46.32973 | 8.64298 | 34992 ft | 455 kts | 170° |
| 2026-05-06 14:50 | 46.26737 | 8.65837 | 35006 ft | 452 kts | 171° |
| 2026-05-06 14:51 | 46.20497 | 8.67350 | 35001 ft | 455 kts | 171° |
| 2026-05-06 14:51 | 46.14294 | 8.68864 | 34996 ft | 452 kts | 171° |
| 2026-05-06 14:52 | 46.08097 | 8.70359 | 35001 ft | 448 kts | 171° |
| 2026-05-06 14:52 | 46.01991 | 8.71841 | 35003 ft | 447 kts | 171° |
| 2026-05-06 14:53 | 45.95844 | 8.73314 | 34997 ft | 449 kts | 171° |
| 2026-05-06 14:53 | 45.89669 | 8.74809 | 35004 ft | 450 kts | 171° |
| 2026-05-06 14:54 | 45.83482 | 8.76297 | 35001 ft | 450 kts | 171° |
| 2026-05-06 14:54 | 45.77334 | 8.77774 | 34999 ft | 446 kts | 171° |
| 2026-05-06 14:55 | 45.71192 | 8.79246 | 34999 ft | 447 kts | 171° |
| 2026-05-06 14:55 | 45.65087 | 8.80698 | 35000 ft | 446 kts | 171° |
| 2026-05-06 14:55 | 45.62037 | 8.81422 | 34702 ft | 442 kts | 171° |
| 2026-05-06 14:56 | 45.59008 | 8.82142 | 34088 ft | 440 kts | 171° |
| 2026-05-06 14:56 | 45.55975 | 8.82862 | 33391 ft | 441 kts | 171° |
| 2026-05-06 14:56 | 45.52948 | 8.83581 | 32696 ft | 441 kts | 171° |
| 2026-05-06 14:56 | 45.49915 | 8.84300 | 31983 ft | 442 kts | 171° |
| 2026-05-06 14:57 | 45.46914 | 8.85010 | 31316 ft | 442 kts | 171° |
| 2026-05-06 14:57 | 45.43883 | 8.85726 | 30653 ft | 440 kts | 171° |
| 2026-05-06 14:57 | 45.40868 | 8.86440 | 30034 ft | 438 kts | 171° |
| 2026-05-06 14:57 | 45.37870 | 8.87146 | 29380 ft | 436 kts | 171° |
| 2026-05-06 14:58 | 45.34875 | 8.87852 | 28727 ft | 434 kts | 171° |
| 2026-05-06 14:58 | 45.31902 | 8.88552 | 28088 ft | 432 kts | 171° |
| 2026-05-06 14:58 | 45.28946 | 8.89248 | 27441 ft | 429 kts | 171° |
| 2026-05-06 14:58 | 45.25989 | 8.89943 | 26785 ft | 428 kts | 171° |
| 2026-05-06 14:59 | 45.23059 | 8.90629 | 26121 ft | 426 kts | 171° |
| 2026-05-06 14:59 | 45.20138 | 8.91314 | 25482 ft | 423 kts | 171° |
| 2026-05-06 14:59 | 45.17237 | 8.91994 | 24839 ft | 421 kts | 171° |
| 2026-05-06 14:59 | 45.14356 | 8.92670 | 24189 ft | 419 kts | 171° |
| 2026-05-06 15:00 | 45.11479 | 8.93342 | 23532 ft | 416 kts | 171° |
| 2026-05-06 15:00 | 45.08677 | 8.93996 | 22921 ft | 411 kts | 171° |
| 2026-05-06 15:00 | 45.05870 | 8.94650 | 22308 ft | 405 kts | 171° |
| 2026-05-06 15:00 | 45.03102 | 8.95293 | 21680 ft | 401 kts | 171° |
| 2026-05-06 15:01 | 45.00363 | 8.95930 | 21200 ft | 393 kts | 171° |
| 2026-05-06 15:01 | 44.97710 | 8.96547 | 21020 ft | 381 kts | 171° |
| 2026-05-06 15:01 | 44.95109 | 8.97150 | 20783 ft | 376 kts | 171° |
| 2026-05-06 15:01 | 44.92516 | 8.97753 | 19861 ft | 379 kts | 171° |
| 2026-05-06 15:02 | 44.89897 | 8.98359 | 18939 ft | 383 kts | 171° |
| 2026-05-06 15:02 | 44.87303 | 8.98959 | 18328 ft | 380 kts | 171° |
| 2026-05-06 15:02 | 44.84711 | 8.99542 | 17823 ft | 374 kts | 172° |
| 2026-05-06 15:02 | 44.82160 | 9.00066 | 17341 ft | 368 kts | 172° |
| 2026-05-06 15:03 | 44.79642 | 9.00574 | 16863 ft | 362 kts | 172° |
| 2026-05-06 15:03 | 44.77163 | 9.01078 | 16395 ft | 357 kts | 172° |
| 2026-05-06 15:03 | 44.74714 | 9.01580 | 15919 ft | 355 kts | 172° |
| 2026-05-06 15:03 | 44.72265 | 9.02084 | 15453 ft | 356 kts | 172° |
| 2026-05-06 15:04 | 44.69823 | 9.02585 | 15056 ft | 351 kts | 172° |
| 2026-05-06 15:04 | 44.68222 | 9.02914 | 14766 ft | 351 kts | 172° |
| 2026-05-06 15:04 | 44.65805 | 9.03410 | 14307 ft | 352 kts | 172° |
| 2026-05-06 15:04 | 44.62584 | 9.04076 | 13678 ft | 353 kts | 172° |
| 2026-05-06 15:05 | 44.60148 | 9.04582 | 13224 ft | 354 kts | 172° |
| 2026-05-06 15:05 | 44.58501 | 9.04923 | 12912 ft | 354 kts | 172° |
| 2026-05-06 15:05 | 44.56095 | 9.05421 | 12449 ft | 354 kts | 172° |
| 2026-05-06 15:05 | 44.53666 | 9.05922 | 11949 ft | 350 kts | 172° |
| 2026-05-06 15:06 | 44.51268 | 9.06413 | 11459 ft | 345 kts | 172° |
| 2026-05-06 15:06 | 44.48919 | 9.06894 | 11003 ft | 338 kts | 172° |
| 2026-05-06 15:06 | 44.46621 | 9.07365 | 10724 ft | 327 kts | 172° |
| 2026-05-06 15:06 | 44.44411 | 9.07816 | 10522 ft | 313 kts | 172° |
| 2026-05-06 15:07 | 44.42294 | 9.08154 | 10342 ft | 300 kts | 179° |
| 2026-05-06 15:07 | 44.40236 | 9.07997 | 10015 ft | 293 kts | 186° |
| 2026-05-06 15:07 | 44.38212 | 9.07713 | 9562 ft | 291 kts | 186° |
| 2026-05-06 15:07 | 44.36197 | 9.07429 | 9124 ft | 289 kts | 186° |
| 2026-05-06 15:08 | 44.34196 | 9.07154 | 8684 ft | 288 kts | 186° |
| 2026-05-06 15:08 | 44.32240 | 9.06888 | 8317 ft | 283 kts | 186° |
| 2026-05-06 15:08 | 44.30312 | 9.06642 | 8117 ft | 273 kts | 183° |
| 2026-05-06 15:08 | 44.28484 | 9.06973 | 7931 ft | 262 kts | 158° |
| 2026-05-06 15:09 | 44.26952 | 9.08271 | 7577 ft | 257 kts | 142° |
| 2026-05-06 15:09 | 44.25552 | 9.09809 | 7217 ft | 254 kts | 141° |
| 2026-05-06 15:09 | 44.24192 | 9.11296 | 6995 ft | 244 kts | 142° |
| 2026-05-06 15:09 | 44.22870 | 9.12720 | 6759 ft | 235 kts | 142° |
| 2026-05-06 15:10 | 44.21584 | 9.14099 | 6509 ft | 232 kts | 143° |
| 2026-05-06 15:10 | 44.20305 | 9.15464 | 6260 ft | 231 kts | 143° |
| 2026-05-06 15:10 | 44.19031 | 9.16820 | 6101 ft | 230 kts | 143° |
| 2026-05-06 15:10 | 44.17755 | 9.18172 | 6088 ft | 230 kts | 143° |
| 2026-05-06 15:11 | 44.16609 | 9.19712 | 6090 ft | 230 kts | 122° |
| 2026-05-06 15:11 | 44.15973 | 9.21749 | 6101 ft | 230 kts | 98° |
| 2026-05-06 15:11 | 44.16063 | 9.23878 | 6122 ft | 220 kts | 71° |
| 2026-05-06 15:11 | 44.16855 | 9.25628 | 6168 ft | 210 kts | 43° |
| 2026-05-06 15:12 | 44.18079 | 9.26699 | 6148 ft | 208 kts | 19° |
| 2026-05-06 15:12 | 44.19484 | 9.26966 | 6133 ft | 207 kts | 354° |
| 2026-05-06 15:12 | 44.20904 | 9.26613 | 6127 ft | 207 kts | 346° |
| 2026-05-06 15:12 | 44.22314 | 9.26204 | 6121 ft | 207 kts | 347° |
| 2026-05-06 15:13 | 44.23731 | 9.25806 | 6119 ft | 207 kts | 347° |
| 2026-05-06 15:13 | 44.25144 | 9.25409 | 6118 ft | 207 kts | 347° |
| 2026-05-06 15:13 | 44.26560 | 9.25007 | 6118 ft | 207 kts | 347° |
| 2026-05-06 15:13 | 44.27970 | 9.24588 | 6116 ft | 207 kts | 343° |
| 2026-05-06 15:14 | 44.29224 | 9.23632 | 6116 ft | 206 kts | 321° |
| 2026-05-06 15:14 | 44.30358 | 9.22405 | 5975 ft | 206 kts | 322° |
| 2026-05-06 15:14 | 44.31482 | 9.21212 | 5644 ft | 198 kts | 321° |
| 2026-05-06 15:14 | 44.32559 | 9.20058 | 5280 ft | 193 kts | 322° |
| 2026-05-06 15:15 | 44.33520 | 9.18779 | 4944 ft | 192 kts | 301° |
| 2026-05-06 15:15 | 44.34044 | 9.17115 | 4726 ft | 186 kts | 287° |
| 2026-05-06 15:15 | 44.34383 | 9.15425 | 4503 ft | 176 kts | 286° |
| 2026-05-06 15:15 | 44.34732 | 9.13827 | 4269 ft | 169 kts | 286° |
| 2026-05-06 15:16 | 44.35076 | 9.12257 | 4056 ft | 168 kts | 286° |
| 2026-05-06 15:16 | 44.35420 | 9.10693 | 3830 ft | 168 kts | 286° |
| 2026-05-06 15:16 | 44.35759 | 9.09150 | 3606 ft | 167 kts | 287° |
| 2026-05-06 15:16 | 44.36099 | 9.07601 | 3374 ft | 167 kts | 287° |
| 2026-05-06 15:17 | 44.36439 | 9.06056 | 3141 ft | 166 kts | 287° |
| 2026-05-06 15:17 | 44.36778 | 9.04515 | 2913 ft | 165 kts | 287° |
| 2026-05-06 15:17 | 44.37110 | 9.03003 | 2701 ft | 156 kts | 287° |
| 2026-05-06 15:17 | 44.37409 | 9.01642 | 2501 ft | 138 kts | 287° |
| 2026-05-06 15:18 | 44.37688 | 9.00370 | 2304 ft | 136 kts | 287° |
| 2026-05-06 15:18 | 44.37966 | 8.99106 | 2098 ft | 136 kts | 287° |
| 2026-05-06 15:18 | 44.38242 | 8.97848 | 1904 ft | 135 kts | 287° |
| 2026-05-06 15:18 | 44.38518 | 8.96591 | 1715 ft | 135 kts | 287° |
| 2026-05-06 15:19 | 44.38791 | 8.95349 | 1525 ft | 134 kts | 287° |
| 2026-05-06 15:19 | 44.39065 | 8.94101 | 1336 ft | 134 kts | 287° |
| 2026-05-06 15:19 | 44.39338 | 8.92854 | 1149 ft | 134 kts | 287° |
| 2026-05-06 15:19 | 44.39611 | 8.91614 | 959 ft | 133 kts | 287° |
| 2026-05-06 15:20 | 44.39882 | 8.90378 | 772 ft | 133 kts | 287° |
| 2026-05-06 15:20 | 44.40155 | 8.89146 | 540 ft | 133 kts | 287° |
| 2026-05-06 15:20 | 44.40424 | 8.87928 | 325 ft | 132 kts | 286° |
| 2026-05-06 15:20 | 44.40688 | 8.86694 | 164 ft | 132 kts | 284° |
| 2026-05-06 15:21 | 44.40938 | 8.85462 | 54 ft | 132 kts | 284° |
| 2026-05-06 15:21 | 44.41184 | 8.84215 | 26 ft | 133 kts | 284° |
| 2026-05-06 15:21 | 44.41384 | 8.83127 | 17 ft | 79 kts | 284° |
| 2026-05-06 15:21 | 44.41447 | 8.82789 | 17 ft | 0 kts | 284° |